Time;durP1;ratioP1;P1;durP2;ratioP2;P2;SDS_P1;SDS_P2;PMS_P1;PMS_P2;Temp;Humidity;BMP_temperature;BMP_pressure;BME280_temperature;BME280_humidity;BME280_pressure;Samples;Min_cycle;Max_cycle;Signal;HPM_P1;HPM_P2
2022/05/31 00:02:24;;;;;;;3.30;2.63;;;17.90;71.80;;;;;;5014039;28;20445;-71
2022/05/31 00:04:55;;;;;;;3.80;3.37;;;17.90;71.70;;;;;;5005629;28;20818;-72
2022/05/31 00:07:24;;;;;;;4.50;2.97;;;17.90;71.80;;;;;;5019234;28;20466;-71
2022/05/31 00:09:50;;;;;;;5.53;3.37;;;17.90;71.80;;;;;;5015097;28;20503;-71
2022/05/31 00:12:16;;;;;;;5.50;3.10;;;17.90;71.90;;;;;;5030980;28;20519;-71
2022/05/31 00:14:47;;;;;;;4.50;3.40;;;17.90;71.90;;;;;;5017260;28;20511;-72
2022/05/31 00:17:16;;;;;;;4.33;3.17;;;17.90;71.90;;;;;;5031217;28;20414;-72
2022/05/31 00:19:44;;;;;;;5.43;3.03;;;17.90;71.90;;;;;;5012046;28;20448;-71
2022/05/31 00:22:22;;;;;;;7.60;3.57;;;17.90;71.90;;;;;;4995257;28;20419;-72
2022/05/31 00:24:49;;;;;;;3.47;2.90;;;17.90;71.90;;;;;;4978104;28;20442;-72
2022/05/31 00:27:20;;;;;;;5.63;3.70;;;17.80;71.80;;;;;;5030926;28;20659;-72
2022/05/31 00:29:47;;;;;;;3.20;2.90;;;17.80;71.80;;;;;;5030055;28;20449;-71
2022/05/31 00:32:22;;;;;;;4.00;3.40;;;17.80;72.70;;;;;;4996539;28;20438;-72
2022/05/31 00:34:51;;;;;;;3.73;3.37;;;17.80;71.80;;;;;;5010231;28;20450;-71
2022/05/31 00:37:26;;;;;;;3.30;3.00;;;17.80;71.80;;;;;;4999654;28;20776;-72
2022/05/31 00:39:54;;;;;;;4.60;3.33;;;17.80;71.90;;;;;;5018897;28;20480;-72
2022/05/31 00:42:25;;;;;;;5.83;3.40;;;17.80;71.80;;;;;;5014715;28;20458;-72
2022/05/31 00:44:54;;;;;;;3.87;3.50;;;17.80;71.80;;;;;;5018615;28;20415;-72
2022/05/31 00:47:30;;;;;;;3.97;3.47;;;17.80;71.80;;;;;;5011178;28;20454;-72
2022/05/31 00:50:08;;;;;;;3.50;2.93;;;17.80;71.90;;;;;;5023625;28;21011;-71
2022/05/31 00:52:40;;;;;;;3.60;2.80;;;17.80;71.90;;;;;;5028120;28;20438;-71
2022/05/31 00:55:14;;;;;;;4.17;3.77;;;17.80;71.90;;;;;;5011153;28;20415;-71
2022/05/31 00:58:09;;;;;;;5.20;2.90;;;17.70;71.80;;;;;;4997996;28;20442;-71
2022/05/31 01:00:39;;;;;;;4.10;3.40;;;17.70;71.90;;;;;;5012113;28;20476;-72
2022/05/31 01:03:11;;;;;;;5.93;3.17;;;17.70;71.90;;;;;;5010796;28;20792;-71
2022/05/31 01:05:37;;;;;;;3.10;2.90;;;17.70;71.90;;;;;;5011170;28;20455;-72
2022/05/31 01:08:10;;;;;;;3.70;3.30;;;17.70;71.90;;;;;;5000738;28;20554;-71
2022/05/31 01:10:51;;;;;;;5.47;3.23;;;17.70;72.70;;;;;;5016472;28;20436;-72
2022/05/31 01:13:53;;;;;;;6.80;4.20;;;17.70;71.90;;;;;;5033346;28;20945;-72
2022/05/31 01:16:58;;;;;;;5.60;4.20;;;17.60;71.90;;;;;;5016816;28;20988;-72
2022/05/31 01:19:56;;;;;;;3.80;2.80;;;17.60;71.90;;;;;;5025253;28;20447;-72
2022/05/31 01:22:47;;;;;;;4.20;3.70;;;17.70;72.00;;;;;;4998679;28;20920;-72
2022/05/31 01:25:22;;;;;;;4.27;3.60;;;17.60;71.90;;;;;;5017843;28;20461;-72
2022/05/31 01:28:09;;;;;;;3.80;3.40;;;17.60;72.00;;;;;;5014077;28;20458;-71
2022/05/31 01:31:02;;;;;;;4.03;3.03;;;17.60;72.10;;;;;;5014471;28;20447;-72
2022/05/31 01:33:46;;;;;;;3.77;3.00;;;17.60;72.10;;;;;;5025829;28;20423;-72
2022/05/31 01:36:31;;;;;;;5.63;3.40;;;17.60;72.10;;;;;;4997904;28;20435;-71
2022/05/31 01:39:00;;;;;;;5.60;3.40;;;17.60;72.10;;;;;;5022544;28;20466;-72
2022/05/31 01:41:47;;;;;;;3.20;2.90;;;17.50;72.00;;;;;;5017535;28;20810;-72
2022/05/31 01:44:18;;;;;;;4.33;3.60;;;17.60;72.30;;;;;;5001868;28;20429;-72
2022/05/31 01:46:49;;;;;;;3.63;3.33;;;17.60;72.30;;;;;;4997576;28;20490;-71
2022/05/31 01:49:16;;;;;;;3.80;3.13;;;17.60;72.30;;;;;;5023620;28;20456;-72
2022/05/31 01:51:44;;;;;;;4.13;3.20;;;17.50;72.30;;;;;;4997985;28;20420;-71
2022/05/31 01:54:14;;;;;;;3.97;3.10;;;17.60;72.40;;;;;;5028561;28;20445;-71
2022/05/31 01:56:42;;;;;;;4.67;3.00;;;17.50;72.30;;;;;;5014539;28;20806;-72
2022/05/31 01:59:11;;;;;;;4.63;4.17;;;17.50;72.40;;;;;;5016782;28;20459;-72
2022/05/31 02:01:40;;;;;;;5.40;3.73;;;17.50;72.40;;;;;;5015293;28;20441;-72
2022/05/31 02:04:09;;;;;;;4.07;3.33;;;17.50;72.40;;;;;;5013512;28;20437;-72
2022/05/31 02:06:39;;;;;;;3.70;3.23;;;17.50;72.40;;;;;;4998190;28;20499;-72
2022/05/31 02:09:11;;;;;;;3.50;3.07;;;17.50;72.40;;;;;;5013231;28;20459;-72
2022/05/31 02:11:41;;;;;;;4.17;3.33;;;17.50;72.40;;;;;;5016295;28;20433;-72
2022/05/31 02:14:21;;;;;;;4.00;3.50;;;17.50;72.40;;;;;;5013483;28;20420;-72
2022/05/31 02:16:50;;;;;;;3.80;3.13;;;17.50;72.40;;;;;;4998666;28;20897;-72
2022/05/31 02:19:51;;;;;;;3.83;3.43;;;17.50;72.40;;;;;;4991493;28;20512;-71
2022/05/31 02:22:30;;;;;;;3.10;2.67;;;17.40;72.20;;;;;;5005239;28;20944;-72
2022/05/31 02:24:56;;;;;;;3.17;2.77;;;17.50;72.40;;;;;;4992228;28;20421;-72
2022/05/31 02:27:29;;;;;;;3.27;2.97;;;17.50;72.40;;;;;;5017238;28;20456;-72
2022/05/31 02:29:58;;;;;;;3.20;2.90;;;17.50;72.40;;;;;;5031527;28;20448;-72
2022/05/31 02:32:24;;;;;;;3.63;3.17;;;17.40;72.30;;;;;;5015840;28;20410;-72
2022/05/31 02:34:51;;;;;;;3.27;2.97;;;17.40;72.30;;;;;;5013179;28;20518;-72
2022/05/31 02:37:21;;;;;;;5.90;3.20;;;17.40;72.30;;;;;;5012718;28;20442;-71
2022/05/31 02:39:50;;;;;;;3.80;3.40;;;17.40;72.30;;;;;;5007680;28;20976;-71
2022/05/31 02:42:17;;;;;;;3.17;2.93;;;17.40;72.40;;;;;;5013110;28;20416;-72
2022/05/31 02:44:44;;;;;;;3.13;2.83;;;17.40;72.30;;;;;;4999523;28;20869;-72
2022/05/31 02:47:10;;;;;;;3.30;2.57;;;17.40;72.40;;;;;;5016288;28;20442;-71
2022/05/31 02:49:38;;;;;;;6.43;3.23;;;17.40;72.40;;;;;;5021675;28;20461;-71
2022/05/31 02:52:04;;;;;;;2.90;2.50;;;17.40;72.40;;;;;;4997402;28;20426;-71
2022/05/31 02:54:38;;;;;;;5.23;2.67;;;17.40;72.50;;;;;;5012974;28;20426;-72
2022/05/31 02:57:21;;;;;;;3.40;2.83;;;17.40;72.40;;;;;;5001382;28;20439;-71
2022/05/31 03:00:10;;;;;;;3.07;2.73;;;17.40;72.50;;;;;;5022672;28;20454;-71
2022/05/31 03:03:00;;;;;;;3.80;2.67;;;17.30;72.40;;;;;;4993151;28;20460;-72
2022/05/31 03:05:47;;;;;;;3.70;2.87;;;17.30;72.50;;;;;;4998890;28;20461;-71
2022/05/31 03:08:13;;;;;;;2.60;2.40;;;17.30;72.60;;;;;;5016018;28;20466;-71
2022/05/31 03:11:07;;;;;;;3.93;2.40;;;17.30;72.60;;;;;;5029624;28;20449;-73
2022/05/31 03:13:36;;;;;;;3.03;2.60;;;17.30;72.60;;;;;;4992804;28;20476;-73
2022/05/31 03:16:05;;;;;;;3.27;2.50;;;17.30;72.70;;;;;;4977887;28;20448;-73
2022/05/31 03:18:42;;;;;;;2.53;2.20;;;17.30;72.70;;;;;;4995135;28;20402;-73
2022/05/31 03:21:19;;;;;;;3.70;2.60;;;17.30;72.70;;;;;;4973878;28;20500;-73
2022/05/31 03:23:52;;;;;;;3.60;2.20;;;17.30;72.70;;;;;;4958251;28;20455;-73
2022/05/31 03:26:22;;;;;;;2.87;2.57;;;17.30;72.70;;;;;;4958143;28;20439;-73
2022/05/31 03:28:48;;;;;;;4.27;2.60;;;17.20;72.70;;;;;;4974200;28;20452;-73
2022/05/31 03:31:17;;;;;;;3.50;2.60;;;17.30;72.80;;;;;;4975191;28;20991;-73
2022/05/31 03:33:43;;;;;;;2.97;2.70;;;17.30;72.90;;;;;;4957686;28;20572;-73
2022/05/31 03:36:12;;;;;;;3.13;2.87;;;17.30;72.90;;;;;;4975171;28;20439;-73
2022/05/31 03:38:58;;;;;;;2.70;2.50;;;17.30;73.00;;;;;;4957939;28;20429;-73
2022/05/31 03:41:25;;;;;;;2.87;2.53;;;17.30;73.10;;;;;;4957903;28;20447;-73
2022/05/31 03:43:56;;;;;;;2.93;2.50;;;17.20;72.90;;;;;;4957944;28;20920;-73
2022/05/31 03:46:23;;;;;;;2.93;2.33;;;17.20;73.00;;;;;;4975168;28;20430;-74
2022/05/31 03:49:12;;;;;;;2.53;2.30;;;17.20;72.90;;;;;;4948047;28;20488;-73
2022/05/31 03:51:54;;;;;;;3.13;2.50;;;17.20;73.00;;;;;;4957713;28;20537;-73
2022/05/31 03:54:30;;;;;;;2.57;2.17;;;17.20;73.00;;;;;;4957742;28;20935;-73
2022/05/31 03:57:20;;;;;;;2.63;2.43;;;17.20;73.00;;;;;;4957703;28;20412;-73
2022/05/31 03:59:52;;;;;;;2.83;2.60;;;17.20;73.10;;;;;;4941624;28;20457;-74
2022/05/31 04:02:21;;;;;;;4.33;2.30;;;17.20;73.10;;;;;;4957604;28;20418;-73
2022/05/31 04:04:49;;;;;;;3.10;2.47;;;17.20;73.10;;;;;;4957655;28;20504;-73
2022/05/31 04:07:20;;;;;;;2.73;2.53;;;17.10;73.00;;;;;;4957491;28;20926;-73
2022/05/31 04:09:48;;;;;;;2.60;2.40;;;17.20;73.20;;;;;;4957391;28;20546;-73
2022/05/31 04:12:14;;;;;;;3.40;2.30;;;17.20;73.30;;;;;;4973246;28;20783;-73
2022/05/31 04:14:58;;;;;;;2.70;2.50;;;17.10;73.20;;;;;;4971026;28;20883;-73
2022/05/31 04:17:27;;;;;;;3.13;2.17;;;17.20;73.30;;;;;;4973472;28;20408;-72
2022/05/31 04:19:56;;;;;;;3.30;2.60;;;17.20;73.50;;;;;;4957076;28;20464;-75
2022/05/31 04:22:22;;;;;;;2.43;2.00;;;17.10;73.50;;;;;;4941375;28;20458;-73
2022/05/31 04:25:00;;;;;;;3.20;2.20;;;17.10;73.50;;;;;;4972854;28;20404;-74
2022/05/31 04:27:45;;;;;;;2.70;2.50;;;17.10;73.50;;;;;;4972107;28;20945;-71
2022/05/31 04:30:31;;;;;;;3.30;2.13;;;17.10;73.60;;;;;;4972767;28;20519;-71
2022/05/31 04:33:16;;;;;;;2.63;2.43;;;17.10;73.70;;;;;;4972906;28;20499;-71
2022/05/31 04:35:44;;;;;;;3.10;2.23;;;17.10;73.80;;;;;;4955623;28;20484;-71
2022/05/31 04:38:15;;;;;;;2.93;2.63;;;17.10;73.80;;;;;;4955299;28;20469;-71
2022/05/31 04:40:57;;;;;;;2.37;2.17;;;17.10;73.80;;;;;;4936470;29;20503;-71
2022/05/31 04:43:52;;;;;;;3.60;2.33;;;17.10;73.80;;;;;;4966239;28;20964;-71
2022/05/31 04:46:34;;;;;;;4.03;2.33;;;17.10;73.90;;;;;;4958470;28;20448;-71
2022/05/31 04:49:21;;;;;;;2.20;2.00;;;17.10;73.90;;;;;;4957029;28;20472;-71
2022/05/31 04:51:50;;;;;;;2.80;2.27;;;17.10;74.00;;;;;;4943268;28;20427;-71
2022/05/31 04:54:23;;;;;;;2.67;2.37;;;17.00;73.90;;;;;;4943273;28;20442;-71
2022/05/31 04:57:06;;;;;;;4.80;2.30;;;17.00;73.90;;;;;;4943099;28;20425;-71
2022/05/31 04:59:35;;;;;;;3.77;2.20;;;17.10;74.10;;;;;;4943166;28;20460;-71
2022/05/31 05:02:01;;;;;;;2.30;2.10;;;17.00;74.20;;;;;;4976540;28;20463;-71
2022/05/31 05:04:39;;;;;;;2.77;2.40;;;17.00;74.20;;;;;;4958697;28;20420;-71
2022/05/31 05:07:08;;;;;;;2.87;2.43;;;17.00;74.20;;;;;;4927894;28;20423;-71
2022/05/31 05:09:39;;;;;;;2.13;1.93;;;17.00;74.20;;;;;;4974987;28;20466;-75
2022/05/31 05:12:28;;;;;;;2.70;2.13;;;17.00;74.30;;;;;;4969640;28;20514;-72
2022/05/31 05:15:08;;;;;;;3.43;2.60;;;17.00;74.40;;;;;;4975323;28;20423;-72
2022/05/31 05:17:37;;;;;;;4.50;2.40;;;17.00;74.50;;;;;;4974645;28;20471;-72
2022/05/31 05:20:06;;;;;;;2.50;2.17;;;17.00;74.90;;;;;;4974244;28;20990;-72
2022/05/31 05:22:34;;;;;;;2.57;2.37;;;17.00;75.30;;;;;;4974917;28;20431;-72
2022/05/31 05:25:03;;;;;;;3.33;2.57;;;17.00;75.60;;;;;;4991497;28;20419;-72
2022/05/31 05:27:32;;;;;;;3.13;2.17;;;17.00;75.70;;;;;;4975856;28;20457;-72
2022/05/31 05:33:10;;;;;;;3.37;2.50;;;17.00;75.80;;;;;;4973012;28;20430;-70
2022/05/31 05:35:49;;;;;;;2.77;2.20;;;17.00;76.10;;;;;;4988915;28;20488;-71
2022/05/31 05:38:15;;;;;;;2.33;2.13;;;17.00;76.40;;;;;;4959007;28;20455;-71
2022/05/31 05:41:01;;;;;;;2.60;2.40;;;17.00;76.60;;;;;;4955139;28;20483;-71
2022/05/31 05:43:48;;;;;;;5.90;2.50;;;17.00;76.80;;;;;;4975462;28;20450;-71
2022/05/31 05:46:23;;;;;;;3.90;2.37;;;17.00;76.80;;;;;;4943664;28;20442;-72
2022/05/31 05:48:52;;;;;;;2.87;2.27;;;16.90;76.80;;;;;;4942692;28;20460;-72
2022/05/31 05:51:20;;;;;;;2.37;2.17;;;16.90;76.80;;;;;;4973880;28;20432;-72
2022/05/31 05:54:04;;;;;;;3.70;2.10;;;17.00;76.90;;;;;;4975658;28;20405;-72
2022/05/31 05:56:53;;;;;;;4.40;2.30;;;17.00;76.90;;;;;;4958087;28;20788;-72
2022/05/31 05:59:37;;;;;;;2.53;2.33;;;17.00;77.00;;;;;;4958096;28;20968;-72
2022/05/31 06:02:41;;;;;;;3.73;2.97;;;16.90;77.00;;;;;;4953777;29;21194;-72
2022/05/31 06:05:29;;;;;;;3.87;2.90;;;16.90;77.10;;;;;;4956185;28;20437;-72
2022/05/31 06:08:01;;;;;;;3.50;2.40;;;16.90;77.20;;;;;;4974235;28;20980;-72
2022/05/31 06:10:38;;;;;;;3.90;2.40;;;16.90;77.20;;;;;;4958429;28;21009;-72
2022/05/31 06:13:17;;;;;;;3.80;2.70;;;16.90;77.50;;;;;;4958006;28;20440;-72
2022/05/31 06:15:49;;;;;;;3.83;2.03;;;16.90;77.50;;;;;;4974142;28;20474;-72
2022/05/31 06:18:24;;;;;;;3.80;2.33;;;16.90;77.60;;;;;;4957966;28;20466;-71
2022/05/31 06:20:58;;;;;;;3.23;2.30;;;16.90;77.60;;;;;;4957430;28;20468;-71
2022/05/31 06:23:24;;;;;;;3.47;2.80;;;16.90;77.60;;;;;;4973965;28;20421;-71
2022/05/31 06:25:57;;;;;;;2.07;1.87;;;16.90;77.70;;;;;;4973826;28;20404;-72
2022/05/31 06:28:34;;;;;;;2.73;2.40;;;16.90;77.70;;;;;;4957862;28;20819;-72
2022/05/31 06:31:03;;;;;;;3.20;2.37;;;16.90;77.80;;;;;;4957195;28;20444;-72
2022/05/31 06:33:29;;;;;;;5.10;2.20;;;16.90;78.00;;;;;;4957778;28;20415;-72
2022/05/31 06:36:02;;;;;;;2.80;2.53;;;16.90;78.00;;;;;;4956959;28;20549;-72
2022/05/31 06:38:29;;;;;;;4.53;2.20;;;16.90;78.20;;;;;;4957749;28;20467;-72
2022/05/31 06:40:58;;;;;;;2.83;2.50;;;16.80;78.00;;;;;;4957424;28;20467;-71
2022/05/31 06:43:52;;;;;;;3.47;2.23;;;16.90;78.30;;;;;;4941757;28;20455;-71
2022/05/31 06:46:36;;;;;;;4.23;2.10;;;16.80;78.20;;;;;;4971105;28;20423;-71
2022/05/31 06:49:41;;;;;;;2.60;2.40;;;16.80;78.30;;;;;;4937061;29;20983;-71
2022/05/31 06:58:45;;;;;;;3.40;2.20;;;16.80;78.50;;;;;;4966353;28;20450;-71
2022/05/31 07:01:15;;;;;;;3.60;2.30;;;16.80;78.70;;;;;;4973055;28;20480;-72
2022/05/31 07:03:43;;;;;;;3.07;1.93;;;16.80;78.80;;;;;;4981958;28;20433;-71
2022/05/31 07:06:10;;;;;;;3.97;2.53;;;16.80;79.00;;;;;;4990596;28;20465;-71
2022/05/31 07:08:42;;;;;;;3.20;2.10;;;16.80;79.10;;;;;;4956280;28;20562;-71
2022/05/31 07:11:22;;;;;;;2.53;2.30;;;16.80;79.10;;;;;;4953751;28;20902;-71
2022/05/31 07:14:20;;;;;;;2.37;1.90;;;16.80;79.20;;;;;;4953538;29;20431;-71
2022/05/31 07:17:13;;;;;;;2.70;2.37;;;16.80;79.40;;;;;;4954601;29;20442;-71
2022/05/31 07:19:45;;;;;;;5.70;2.40;;;16.80;79.60;;;;;;4937374;29;20438;-71
2022/05/31 07:22:11;;;;;;;3.40;2.17;;;16.80;80.30;;;;;;4937636;29;20424;-71
2022/05/31 07:24:42;;;;;;;2.20;1.90;;;16.80;79.60;;;;;;4953782;29;20437;-71
2022/05/31 07:27:24;;;;;;;3.30;2.80;;;16.80;79.80;;;;;;4953446;29;20396;-71
2022/05/31 07:29:55;;;;;;;3.23;2.47;;;16.80;79.90;;;;;;4953530;28;20552;-71
2022/05/31 07:32:29;;;;;;;4.80;2.73;;;16.70;79.90;;;;;;4953215;29;20407;-72
2022/05/31 07:35:03;;;;;;;2.87;2.57;;;16.80;80.10;;;;;;4964917;28;20461;-71
2022/05/31 07:37:29;;;;;;;4.60;2.70;;;16.70;80.00;;;;;;5008429;28;20935;-71
2022/05/31 07:40:00;;;;;;;3.13;2.43;;;16.80;80.30;;;;;;4983077;28;20460;-71
2022/05/31 07:42:26;;;;;;;3.87;2.53;;;16.80;80.30;;;;;;4972319;28;20894;-71
2022/05/31 07:44:54;;;;;;;3.90;2.40;;;16.80;80.20;;;;;;4956694;28;20433;-71
2022/05/31 07:47:20;;;;;;;3.67;2.27;;;16.70;80.10;;;;;;4972449;28;20442;-71
2022/05/31 07:49:46;;;;;;;3.43;2.40;;;16.70;80.20;;;;;;4956517;28;20449;-71
2022/05/31 07:52:45;;;;;;;3.20;2.90;;;16.80;80.40;;;;;;4968992;28;20522;-71
2022/05/31 07:55:34;;;;;;;3.43;3.13;;;16.70;80.50;;;;;;4973501;28;20413;-71
2022/05/31 07:58:31;;;;;;;4.80;2.80;;;16.70;80.50;;;;;;4973243;28;20960;-71
2022/05/31 08:01:08;;;;;;;4.13;3.40;;;16.70;80.60;;;;;;4973374;28;20469;-71
2022/05/31 08:03:38;;;;;;;3.20;2.90;;;16.70;80.70;;;;;;4972044;28;20525;-71
2022/05/31 08:06:06;;;;;;;4.33;3.77;;;16.70;80.80;;;;;;4973145;28;20470;-71
2022/05/31 08:08:33;;;;;;;4.20;2.90;;;16.70;80.80;;;;;;4955673;28;20521;-71
2022/05/31 08:11:04;;;;;;;3.17;2.80;;;16.70;80.90;;;;;;4987791;28;20812;-71
2022/05/31 08:13:29;;;;;;;3.93;3.07;;;16.70;81.10;;;;;;4955637;28;20445;-71
2022/05/31 08:16:02;;;;;;;3.17;2.40;;;16.70;81.10;;;;;;4973147;28;20408;-71
2022/05/31 08:18:28;;;;;;;3.03;2.70;;;16.80;81.30;;;;;;4940133;28;20199;-71
2022/05/31 08:21:02;;;;;;;5.63;2.87;;;16.70;81.10;;;;;;4971867;28;20812;-71
2022/05/31 08:23:31;;;;;;;3.77;2.57;;;16.80;81.30;;;;;;4974990;28;20428;-71
2022/05/31 08:26:01;;;;;;;5.67;2.63;;;16.80;81.30;;;;;;4974950;28;20415;-71
2022/05/31 08:28:31;;;;;;;3.43;2.80;;;16.70;81.20;;;;;;4991040;28;20469;-70
2022/05/31 08:31:05;;;;;;;3.47;3.10;;;16.70;81.20;;;;;;5007300;28;20438;-70
2022/05/31 08:33:34;;;;;;;4.70;3.87;;;16.70;81.20;;;;;;4958625;28;20463;-70
2022/05/31 08:36:00;;;;;;;4.30;3.60;;;16.80;81.30;;;;;;4973625;28;20443;-71
2022/05/31 08:38:28;;;;;;;4.50;3.50;;;16.70;81.20;;;;;;4972828;28;20921;-70
2022/05/31 08:41:02;;;;;;;4.73;3.77;;;16.80;81.30;;;;;;4955321;28;20804;-70
2022/05/31 08:43:48;;;;;;;5.80;3.77;;;16.80;81.50;;;;;;4972919;28;20545;-71
2022/05/31 08:46:26;;;;;;;5.67;3.33;;;16.80;81.50;;;;;;4972474;28;20945;-71
2022/05/31 08:49:18;;;;;;;4.33;3.40;;;16.80;81.60;;;;;;4955508;28;20472;-71
2022/05/31 08:51:58;;;;;;;4.17;3.37;;;16.80;81.80;;;;;;4972465;28;20436;-71
2022/05/31 08:57:45;;;;;;;4.50;2.97;;;16.80;81.70;;;;;;4971493;28;20407;-71
2022/05/31 09:00:19;;;;;;;2.93;2.73;;;16.80;81.60;;;;;;4955236;28;20838;-71
2022/05/31 09:02:50;;;;;;;3.50;2.90;;;16.80;81.60;;;;;;4972415;28;20467;-71
2022/05/31 09:05:35;;;;;;;4.20;3.13;;;16.80;81.60;;;;;;4971473;28;20400;-71
2022/05/31 09:08:22;;;;;;;3.80;2.70;;;16.80;81.50;;;;;;4972587;28;20552;-71
2022/05/31 09:11:01;;;;;;;5.30;3.43;;;16.90;81.50;;;;;;4954469;28;20511;-71
2022/05/31 09:13:39;;;;;;;5.50;3.10;;;16.90;81.50;;;;;;4971085;28;20438;-71
2022/05/31 09:16:30;;;;;;;3.47;3.00;;;16.90;81.40;;;;;;4954887;28;20430;-71
2022/05/31 09:19:05;;;;;;;4.07;2.80;;;16.90;81.40;;;;;;4972305;28;20444;-71
2022/05/31 09:21:45;;;;;;;4.60;3.07;;;16.90;81.40;;;;;;4972173;28;20407;-71
2022/05/31 09:24:14;;;;;;;4.93;3.30;;;16.90;81.40;;;;;;4955319;28;20450;-71
2022/05/31 09:27:03;;;;;;;3.73;3.23;;;16.90;81.50;;;;;;4955232;28;20412;-71
2022/05/31 09:29:47;;;;;;;3.00;2.70;;;16.90;81.50;;;;;;4954875;28;20478;-71
2022/05/31 09:32:36;;;;;;;3.93;3.30;;;17.00;81.60;;;;;;4957028;28;20439;-71
2022/05/31 09:35:29;;;;;;;5.33;2.80;;;17.00;81.60;;;;;;4975802;28;20424;-71
2022/05/31 09:38:36;;;;;;;3.57;2.87;;;17.00;81.60;;;;;;4975296;28;20450;-71
2022/05/31 09:41:08;;;;;;;3.80;2.70;;;17.00;81.80;;;;;;4974515;28;20639;-71
2022/05/31 09:43:53;;;;;;;3.93;2.67;;;17.00;82.10;;;;;;4958556;28;20425;-71
2022/05/31 09:46:47;;;;;;;3.20;2.80;;;17.00;82.20;;;;;;4942501;28;20758;-71
2022/05/31 09:49:45;;;;;;;3.27;2.93;;;17.00;82.20;;;;;;4974362;28;20481;-71
2022/05/31 09:52:23;;;;;;;2.93;2.50;;;17.00;83.00;;;;;;4941109;28;20429;-71
2022/05/31 09:58:26;;;;;;;3.70;2.87;;;17.10;82.20;;;;;;4974450;28;20419;-71
2022/05/31 10:01:30;;;;;;;3.17;2.70;;;17.10;82.20;;;;;;4966956;28;20465;-71
2022/05/31 10:04:31;;;;;;;3.50;2.97;;;17.10;82.00;;;;;;4956749;28;20437;-71
2022/05/31 10:07:07;;;;;;;2.60;2.30;;;17.10;81.70;;;;;;4966903;28;20472;-71
2022/05/31 10:09:41;;;;;;;3.23;2.93;;;17.10;81.80;;;;;;4938472;29;20481;-71
2022/05/31 10:12:14;;;;;;;3.97;2.43;;;17.10;81.90;;;;;;4938772;29;20500;-71
2022/05/31 10:14:54;;;;;;;3.87;2.50;;;17.10;82.00;;;;;;4954645;29;20440;-71
2022/05/31 10:17:42;;;;;;;3.87;2.40;;;17.20;81.80;;;;;;4955936;29;20888;-71
2022/05/31 10:20:18;;;;;;;3.43;2.87;;;17.20;81.60;;;;;;4954357;28;20484;-71
2022/05/31 10:22:59;;;;;;;4.63;2.50;;;17.20;81.50;;;;;;4954532;29;20416;-71
2022/05/31 10:25:57;;;;;;;3.30;2.67;;;17.20;81.40;;;;;;4954395;29;20421;-71
2022/05/31 10:28:56;;;;;;;3.57;3.03;;;17.30;81.50;;;;;;4954509;29;20478;-71
2022/05/31 10:31:50;;;;;;;2.50;2.30;;;17.30;81.50;;;;;;4954523;29;20442;-71
2022/05/31 10:34:36;;;;;;;2.57;2.37;;;17.30;81.40;;;;;;4970331;28;20784;-71
2022/05/31 10:37:07;;;;;;;2.30;2.10;;;17.40;81.50;;;;;;4938681;29;20971;-72
2022/05/31 10:39:38;;;;;;;3.20;2.90;;;17.40;81.30;;;;;;4955591;28;20487;-72
2022/05/31 10:42:14;;;;;;;4.00;2.50;;;17.50;81.30;;;;;;4955163;28;20467;-72
2022/05/31 10:44:51;;;;;;;2.40;2.20;;;17.50;81.10;;;;;;4953560;29;20527;-72
2022/05/31 10:47:24;;;;;;;3.00;2.33;;;17.50;81.00;;;;;;4969966;28;20456;-72
2022/05/31 10:49:50;;;;;;;3.37;2.47;;;17.50;80.90;;;;;;4955555;28;20488;-72
2022/05/31 10:52:28;;;;;;;3.30;2.10;;;17.60;80.90;;;;;;4970642;28;20992;-72
2022/05/31 10:55:22;;;;;;;3.00;2.30;;;17.60;80.90;;;;;;4957187;28;20444;-72
2022/05/31 10:58:09;;;;;;;2.80;2.53;;;17.60;80.70;;;;;;4957718;28;20418;-72
2022/05/31 11:00:52;;;;;;;2.60;2.10;;;17.70;80.70;;;;;;4957163;28;20492;-72
2022/05/31 11:03:53;;;;;;;3.90;2.83;;;17.70;80.80;;;;;;4956821;28;20470;-72
2022/05/31 11:06:51;;;;;;;2.40;2.20;;;17.70;80.70;;;;;;4989231;28;20416;-72
2022/05/31 11:12:30;;;;;;;2.53;2.33;;;17.80;80.70;;;;;;4973155;28;20892;-72
2022/05/31 11:15:04;;;;;;;3.60;2.47;;;17.80;80.60;;;;;;4972979;28;20812;-72
2022/05/31 11:17:58;;;;;;;3.80;2.40;;;17.80;80.70;;;;;;4956975;28;20433;-72
2022/05/31 11:20:54;;;;;;;3.00;2.50;;;17.90;80.60;;;;;;5032323;22;20441;-71
2022/05/31 11:23:31;;;;;;;2.40;2.20;;;17.90;80.50;;;;;;4981173;28;20475;-72
2022/05/31 11:26:05;;;;;;;3.10;2.80;;;17.90;80.50;;;;;;5011642;28;20431;-72
2022/05/31 11:29:07;;;;;;;2.53;2.33;;;18.00;80.60;;;;;;5012796;28;20904;-72
2022/05/31 11:32:07;;;;;;;2.57;2.37;;;18.00;80.50;;;;;;4941852;28;20455;-71
2022/05/31 11:34:39;;;;;;;2.83;2.63;;;18.00;80.20;;;;;;5011734;28;21040;-72
2022/05/31 11:37:30;;;;;;;3.90;2.20;;;18.10;80.30;;;;;;5011220;28;20952;-72
2022/05/31 11:40:27;;;;;;;2.57;2.20;;;18.10;80.20;;;;;;5011491;28;20439;-72
2022/05/31 11:43:18;;;;;;;2.40;2.10;;;18.10;80.00;;;;;;5011547;28;20875;-72
2022/05/31 11:45:59;;;;;;;2.63;2.43;;;18.20;79.80;;;;;;5011356;28;20482;-71
2022/05/31 11:48:34;;;;;;;3.00;2.53;;;18.20;79.70;;;;;;5011570;28;20521;-72
2022/05/31 11:51:08;;;;;;;2.30;2.10;;;18.20;79.60;;;;;;5011417;28;20838;-72
2022/05/31 11:54:09;;;;;;;2.40;2.20;;;18.20;79.50;;;;;;5011009;28;20428;-72
2022/05/31 11:57:01;;;;;;;3.37;2.73;;;18.30;79.40;;;;;;5011327;28;20410;-72
2022/05/31 11:59:27;;;;;;;2.93;2.47;;;18.30;79.30;;;;;;4994640;28;20948;-72
2022/05/31 12:02:07;;;;;;;3.30;2.53;;;18.30;79.20;;;;;;5011292;28;20842;-72
2022/05/31 12:04:54;;;;;;;3.40;2.67;;;18.40;79.30;;;;;;5011102;28;20778;-72
2022/05/31 12:07:31;;;;;;;4.67;3.10;;;18.40;79.20;;;;;;5011096;28;20438;-72
2022/05/31 12:10:04;;;;;;;3.10;2.80;;;18.40;79.10;;;;;;5027353;28;20425;-72
2022/05/31 12:12:36;;;;;;;2.97;2.67;;;18.40;79.10;;;;;;5012191;28;20404;-71
2022/05/31 12:15:11;;;;;;;3.17;2.37;;;18.50;79.10;;;;;;4993606;28;20494;-71
2022/05/31 12:18:12;;;;;;;3.50;2.70;;;18.50;79.10;;;;;;5011057;28;20444;-72
2022/05/31 12:20:57;;;;;;;2.30;2.10;;;18.60;79.10;;;;;;4957797;28;20446;-72
2022/05/31 12:23:37;;;;;;;4.13;2.33;;;18.60;79.00;;;;;;5011862;28;20444;-71
2022/05/31 12:26:14;;;;;;;3.53;2.70;;;18.60;78.80;;;;;;5010835;28;20477;-72
2022/05/31 12:28:54;;;;;;;2.40;2.13;;;18.60;78.70;;;;;;5010685;28;20463;-71
2022/05/31 12:31:26;;;;;;;4.37;2.70;;;18.60;78.60;;;;;;5010789;28;20474;-71
2022/05/31 12:34:34;;;;;;;3.17;2.50;;;18.70;78.50;;;;;;5010913;28;20409;-71
2022/05/31 12:37:08;;;;;;;3.80;2.40;;;18.70;78.30;;;;;;4980958;28;20441;-72
2022/05/31 12:39:37;;;;;;;3.20;2.93;;;18.70;78.00;;;;;;4991043;28;20568;-71
2022/05/31 12:42:15;;;;;;;2.60;2.40;;;18.70;77.60;;;;;;4990905;28;20453;-72
2022/05/31 12:44:50;;;;;;;2.67;2.47;;;18.80;77.10;;;;;;4991220;28;20797;-72
2022/05/31 12:47:29;;;;;;;2.77;2.57;;;18.80;77.30;;;;;;4991212;28;20417;-72
2022/05/31 12:50:04;;;;;;;3.13;2.40;;;18.80;77.00;;;;;;4992134;28;20451;-71
2022/05/31 12:55:25;;;;;;;2.70;2.50;;;18.90;76.40;;;;;;5007079;28;20437;-72
2022/05/31 13:00:56;;;;;;;2.30;2.10;;;18.90;76.70;;;;;;4990777;28;20444;-72
2022/05/31 13:03:34;;;;;;;4.07;2.37;;;19.00;76.60;;;;;;4992289;28;20436;-72
2022/05/31 13:06:09;;;;;;;4.30;2.70;;;19.00;76.40;;;;;;4983545;28;20431;-71
2022/05/31 13:20:30;;;;;;;2.70;2.50;;;19.10;73.60;;;;;;4978230;28;20453;-71
2022/05/31 13:23:11;;;;;;;3.37;3.07;;;19.20;73.90;;;;;;4966342;28;20815;-72
2022/05/31 13:25:46;;;;;;;2.57;2.37;;;19.20;73.70;;;;;;4994119;28;20468;-71
2022/05/31 13:28:49;;;;;;;2.43;2.23;;;19.20;73.80;;;;;;4994416;28;20541;-72
2022/05/31 13:31:26;;;;;;;2.20;2.00;;;19.20;73.80;;;;;;4992951;28;20815;-72
2022/05/31 13:34:03;;;;;;;2.73;2.40;;;19.20;73.80;;;;;;4995147;28;20421;-71
2022/05/31 13:36:32;;;;;;;3.60;2.27;;;19.30;73.90;;;;;;4997396;28;20426;-72
2022/05/31 13:39:08;;;;;;;3.30;2.23;;;19.30;73.70;;;;;;5013469;28;20443;-72
2022/05/31 13:41:44;;;;;;;2.87;2.10;;;19.30;73.60;;;;;;5014813;28;20400;-72
2022/05/31 13:44:10;;;;;;;2.37;2.17;;;19.30;73.40;;;;;;5013426;28;20526;-72
2022/05/31 13:46:43;;;;;;;2.90;2.60;;;19.40;73.50;;;;;;5014585;28;20417;-72
2022/05/31 13:49:19;;;;;;;3.33;2.07;;;19.40;73.50;;;;;;5013459;28;20865;-72
2022/05/31 13:51:54;;;;;;;3.60;2.80;;;19.40;73.40;;;;;;5013672;28;20444;-72
2022/05/31 13:54:23;;;;;;;2.10;1.90;;;19.40;73.30;;;;;;5013489;28;20815;-72
2022/05/31 13:56:50;;;;;;;4.03;2.40;;;19.50;73.50;;;;;;5013037;28;20878;-71
2022/05/31 13:59:53;;;;;;;3.00;2.53;;;19.50;73.50;;;;;;5013283;28;20531;-72
2022/05/31 14:02:21;;;;;;;4.10;2.90;;;19.50;73.50;;;;;;4918904;29;20432;-72
2022/05/31 14:04:58;;;;;;;5.30;2.50;;;19.50;73.60;;;;;;4983257;28;20822;-72
2022/05/31 14:07:33;;;;;;;3.37;2.47;;;19.50;73.70;;;;;;4996519;28;20613;-72
2022/05/31 14:10:02;;;;;;;3.83;2.30;;;19.50;73.70;;;;;;5013288;28;20829;-72
2022/05/31 14:12:31;;;;;;;3.10;2.50;;;19.60;73.80;;;;;;4996956;28;20478;-71
2022/05/31 14:15:01;;;;;;;2.37;2.17;;;19.60;73.80;;;;;;5013147;28;20504;-72
2022/05/31 14:17:36;;;;;;;4.57;2.47;;;19.60;73.70;;;;;;5012593;28;20455;-72